createdAt,value
2023-01-04T00:01:21.571Z,86.30
2023-01-04T00:02:53.271Z,86.60
2023-01-04T00:04:24.981Z,86.40
2023-01-04T00:05:58.496Z,86.50
2023-01-04T00:07:30.609Z,86.50
2023-01-04T00:09:02.294Z,86.60
2023-01-04T00:10:33.940Z,86.50
2023-01-04T00:12:05.787Z,86.50
2023-01-04T00:13:37.528Z,86.60
2023-01-04T00:15:09.885Z,86.60
2023-01-04T00:16:41.664Z,86.70
2023-01-04T00:18:14.113Z,86.50
2023-01-04T00:19:45.776Z,86.70
2023-01-04T00:21:23.027Z,86.80
2023-01-04T00:22:54.721Z,86.80
2023-01-04T00:24:26.321Z,86.80
2023-01-04T00:25:57.968Z,86.90
2023-01-04T00:27:29.615Z,87.00
2023-01-04T00:29:03.518Z,87.00
2023-01-04T00:30:35.400Z,87.00
2023-01-04T00:32:07.086Z,87.10
2023-01-04T00:33:39.293Z,87.20
2023-01-04T00:35:27.145Z,87.30
2023-01-04T00:37:03.307Z,87.40
2023-01-04T00:38:35.947Z,87.50
2023-01-04T00:40:08.169Z,87.60
2023-01-04T00:42:00.675Z,87.70
2023-01-04T00:43:33.126Z,87.80
2023-01-04T00:45:05.109Z,88.00
2023-01-04T00:46:37.390Z,88.00
2023-01-04T00:48:09.047Z,88.10
2023-01-04T00:49:40.715Z,88.10
2023-01-04T00:51:12.332Z,88.20
2023-01-04T00:52:43.970Z,88.30
2023-01-04T00:54:16.337Z,88.40
2023-01-04T00:55:48.274Z,88.40
2023-01-04T00:57:19.903Z,88.60
2023-01-04T00:58:59.518Z,88.60
2023-01-04T01:00:31.463Z,88.70
2023-01-04T01:02:03.206Z,88.80
2023-01-04T01:03:38.731Z,88.80
2023-01-04T01:05:10.783Z,88.80
2023-01-04T01:06:42.490Z,88.90
2023-01-04T01:08:26.472Z,88.90
2023-01-04T01:09:58.229Z,89.00
2023-01-04T01:11:30.976Z,89.00
2023-01-04T01:13:02.605Z,88.90
2023-01-04T01:14:34.211Z,89.10
2023-01-04T01:16:11.008Z,89.10
2023-01-04T01:17:42.716Z,89.20
2023-01-04T01:19:17.544Z,89.20
2023-01-04T01:20:49.176Z,89.30
2023-01-04T01:22:20.927Z,89.30
2023-01-04T01:23:54.277Z,89.40
2023-01-04T01:25:25.961Z,89.40
2023-01-04T01:26:57.681Z,89.50
2023-01-04T01:28:30.353Z,89.50
2023-01-04T01:30:02.001Z,89.50
2023-01-04T01:31:33.788Z,89.70
2023-01-04T01:33:05.561Z,89.70
2023-01-04T01:34:37.202Z,89.80
2023-01-04T01:36:09.987Z,90.00
2023-01-04T01:37:41.640Z,90.00
2023-01-04T01:39:13.318Z,90.20
2023-01-04T01:40:45.574Z,90.30
2023-01-04T01:42:22.720Z,90.40
2023-01-04T01:43:59.191Z,90.60
2023-01-04T01:45:34.544Z,90.70
2023-01-04T01:47:06.212Z,90.90
2023-01-04T01:48:38.862Z,90.90
2023-01-04T01:50:27.406Z,91.00
2023-01-04T01:52:03.695Z,91.10
2023-01-04T01:53:39.109Z,91.20
2023-01-04T01:55:12.483Z,91.20
2023-01-04T01:56:49.192Z,91.30
2023-01-04T01:58:26.344Z,91.30
2023-01-04T02:00:01.878Z,91.50
2023-01-04T02:01:34.095Z,91.60
2023-01-04T02:03:51.682Z,91.60
2023-01-04T02:05:24.923Z,91.90
2023-01-04T02:06:59.324Z,91.90
2023-01-04T02:08:31.404Z,91.90
2023-01-04T02:10:03.214Z,91.90
2023-01-04T02:11:34.942Z,92.10
2023-01-04T02:13:11.930Z,92.00
2023-01-04T02:14:46.668Z,92.00
2023-01-04T02:16:37.466Z,92.00
2023-01-04T02:18:15.969Z,92.20
2023-01-04T02:20:06.405Z,92.30
2023-01-04T02:22:03.890Z,92.30
2023-01-04T02:23:59.618Z,92.40
2023-01-04T02:25:34.269Z,92.40
2023-01-04T02:27:45.161Z,92.50
2023-01-04T02:29:47.500Z,92.60
2023-01-04T02:31:53.846Z,92.70
2023-01-04T02:33:34.772Z,92.60
2023-01-04T02:35:37.916Z,92.80
2023-01-04T02:37:22.865Z,92.80
2023-01-04T02:39:04.186Z,92.90
2023-01-04T02:40:54.803Z,92.90
2023-01-04T02:43:15.869Z,92.90
2023-01-04T02:44:53.549Z,92.80
2023-01-04T02:46:30.856Z,93.00
2023-01-04T02:48:24.433Z,93.10
2023-01-04T02:50:14.797Z,93.10
2023-01-04T02:51:46.504Z,93.10
2023-01-04T02:53:28.386Z,93.10
2023-01-04T02:55:02.097Z,93.00
2023-01-04T02:56:52.967Z,93.00
2023-01-04T02:58:57.788Z,93.10
2023-01-04T03:01:24.460Z,93.10
2023-01-04T03:03:14.846Z,93.10
2023-01-04T03:05:48.816Z,93.30
2023-01-04T03:07:34.817Z,93.20
2023-01-04T03:09:18.961Z,93.20
2023-01-04T03:11:02.209Z,93.20
2023-01-04T03:12:41.395Z,93.30
2023-01-04T03:14:31.349Z,93.40
2023-01-04T03:16:11.100Z,93.40
2023-01-04T03:17:57.696Z,93.40
2023-01-04T03:19:51.586Z,93.40
2023-01-04T03:21:26.365Z,93.40
2023-01-04T03:23:28.976Z,93.40
2023-01-04T03:25:20.229Z,93.40
2023-01-04T03:27:29.055Z,93.40
2023-01-04T03:29:27.253Z,93.40
2023-01-04T03:31:27.184Z,93.40
2023-01-04T03:33:24.070Z,93.40
2023-01-04T03:35:14.993Z,93.50
2023-01-04T03:37:12.462Z,93.50
2023-01-04T03:39:27.321Z,93.50
2023-01-04T03:41:44.636Z,93.70
2023-01-04T03:43:37.949Z,93.70
2023-01-04T03:45:42.607Z,93.70
2023-01-04T03:47:41.282Z,93.70
2023-01-04T03:49:31.233Z,93.80
2023-01-04T03:51:21.614Z,93.90
2023-01-04T03:52:55.131Z,93.90
2023-01-04T03:54:39.471Z,94.00
2023-01-04T03:56:12.666Z,93.90
2023-01-04T03:57:46.061Z,94.10
2023-01-04T03:59:17.774Z,94.10
2023-01-04T04:00:49.637Z,94.10
2023-01-04T04:02:28.534Z,94.10
2023-01-04T04:04:18.983Z,94.10
2023-01-04T04:06:09.482Z,94.20
2023-01-04T04:08:00.009Z,94.20
2023-01-04T04:09:32.071Z,94.30
2023-01-04T04:11:22.364Z,94.30
2023-01-04T04:12:54.159Z,94.30
2023-01-04T04:14:25.920Z,94.40
2023-01-04T04:15:57.610Z,94.50
2023-01-04T04:17:29.340Z,94.50
2023-01-04T04:19:07.977Z,94.40
2023-01-04T04:20:40.353Z,94.40
2023-01-04T04:22:11.971Z,94.50
2023-01-04T04:23:43.936Z,94.60
2023-01-04T04:25:15.649Z,94.60
2023-01-04T04:26:47.578Z,94.50
2023-01-04T04:28:19.418Z,94.60
2023-01-04T04:29:51.318Z,94.70
2023-01-04T04:31:23.024Z,94.80
2023-01-04T04:32:54.725Z,94.80
2023-01-04T04:34:26.417Z,94.90
2023-01-04T04:35:58.121Z,95.00
2023-01-04T04:37:31.940Z,95.00
2023-01-04T04:39:04.219Z,95.10
2023-01-04T04:40:57.079Z,95.00
2023-01-04T04:42:28.676Z,95.20
2023-01-04T04:44:00.397Z,95.10
2023-01-04T04:45:32.086Z,95.10
2023-01-04T04:47:03.843Z,95.20
2023-01-04T04:48:35.481Z,95.20
2023-01-04T04:50:07.712Z,95.30
2023-01-04T04:51:39.936Z,95.30
2023-01-04T04:53:11.571Z,95.30
2023-01-04T04:54:43.217Z,95.30
2023-01-04T04:56:14.950Z,95.30
2023-01-04T04:57:46.591Z,95.30
2023-01-04T04:59:18.382Z,95.20
2023-01-04T05:00:50.102Z,95.30
2023-01-04T05:02:23.998Z,95.40
2023-01-04T05:03:55.811Z,95.20
2023-01-04T05:05:28.194Z,95.30
2023-01-04T05:06:59.985Z,95.20
2023-01-04T05:08:31.713Z,95.30
2023-01-04T05:10:03.899Z,95.20
2023-01-04T05:11:53.978Z,95.30
2023-01-04T05:13:25.847Z,95.30
2023-01-04T05:14:57.451Z,95.30
2023-01-04T05:16:29.116Z,95.30
2023-01-04T05:18:00.874Z,95.30
2023-01-04T05:19:32.543Z,95.40
2023-01-04T05:21:04.300Z,95.50
2023-01-04T05:22:35.945Z,95.50
2023-01-04T05:24:08.611Z,95.40
2023-01-04T05:25:40.344Z,95.40
2023-01-04T05:27:11.947Z,95.40
2023-01-04T05:28:48.424Z,95.40
2023-01-04T05:30:41.697Z,95.50
2023-01-04T05:32:13.377Z,95.40
2023-01-04T05:33:45.130Z,95.50
2023-01-04T05:35:16.882Z,95.60
2023-01-04T05:36:48.556Z,95.50
2023-01-04T05:38:21.138Z,95.60
2023-01-04T05:39:52.753Z,95.70
2023-01-04T05:41:43.242Z,95.70
2023-01-04T05:43:15.777Z,95.70
2023-01-04T05:44:47.525Z,95.70
2023-01-04T05:46:19.266Z,95.70
2023-01-04T05:47:52.721Z,95.70
2023-01-04T05:49:24.361Z,95.80
2023-01-04T05:50:56.050Z,95.70
2023-01-04T05:52:28.219Z,95.80
2023-01-04T05:53:59.906Z,96.00
2023-01-04T05:55:31.786Z,95.90
2023-01-04T05:57:03.636Z,96.00
2023-01-04T05:58:35.396Z,96.10
2023-01-04T06:00:09.018Z,96.00
2023-01-04T06:01:46.567Z,96.00
2023-01-04T06:03:18.344Z,96.00
2023-01-04T06:04:58.072Z,96.00
2023-01-04T06:06:30.607Z,96.10
2023-01-04T06:08:02.317Z,96.20
2023-01-04T06:09:33.997Z,96.10
2023-01-04T06:11:05.737Z,96.30
2023-01-04T06:12:37.990Z,96.20
2023-01-04T06:14:09.730Z,96.30
2023-01-04T06:15:43.332Z,96.30
2023-01-04T06:17:15.304Z,96.20
2023-01-04T06:18:47.019Z,96.30
2023-01-04T06:20:18.744Z,96.30
2023-01-04T06:21:50.710Z,96.40
2023-01-04T06:23:22.424Z,96.40
2023-01-04T06:24:54.165Z,96.40
2023-01-04T06:26:25.886Z,96.50
2023-01-04T06:27:57.530Z,96.50
2023-01-04T06:29:29.278Z,96.40
2023-01-04T06:31:05.607Z,96.40
2023-01-04T06:32:37.416Z,96.40
2023-01-04T06:34:12.062Z,96.30
2023-01-04T06:35:43.708Z,96.40
2023-01-04T06:37:15.397Z,96.40
2023-01-04T06:38:47.679Z,96.40
2023-01-04T06:40:19.336Z,96.50
2023-01-04T06:41:50.988Z,96.60
2023-01-04T06:43:22.702Z,96.60
2023-01-04T06:44:54.543Z,96.60
2023-01-04T06:46:26.383Z,96.70
2023-01-04T06:47:58.002Z,96.70
2023-01-04T06:49:29.616Z,96.70
2023-01-04T06:51:01.294Z,96.70
2023-01-04T06:52:33.054Z,96.70
2023-01-04T06:54:04.699Z,96.90
2023-01-04T06:55:36.382Z,96.70
2023-01-04T06:57:08.400Z,96.80
2023-01-04T06:58:40.286Z,96.90
2023-01-04T07:00:12.692Z,96.90
2023-01-04T07:01:44.434Z,96.90
2023-01-04T07:03:16.540Z,97.10
2023-01-04T07:04:48.424Z,97.20
2023-01-04T07:06:20.380Z,97.10
2023-01-04T07:07:52.100Z,97.20
2023-01-04T07:09:23.869Z,96.90
2023-01-04T07:10:57.764Z,97.10
2023-01-04T07:12:29.858Z,97.10
2023-01-04T07:14:01.546Z,97.10
2023-01-04T07:15:38.229Z,97.10
2023-01-04T07:17:12.271Z,97.20
2023-01-04T07:18:43.901Z,97.20
2023-01-04T07:20:16.072Z,97.20
2023-01-04T07:21:47.769Z,97.20
2023-01-04T07:23:19.462Z,97.30
2023-01-04T07:24:51.153Z,97.30
2023-01-04T07:26:22.801Z,97.50
2023-01-04T07:27:55.413Z,97.30
2023-01-04T07:29:27.834Z,97.30
2023-01-04T07:31:04.375Z,97.40
2023-01-04T07:32:36.063Z,97.70
2023-01-04T07:34:07.881Z,97.60
2023-01-04T07:35:39.541Z,97.50
2023-01-04T07:37:11.217Z,97.50
2023-01-04T07:38:43.471Z,97.60
2023-01-04T07:40:15.265Z,97.70
2023-01-04T07:41:47.465Z,97.70
2023-01-04T07:43:27.688Z,97.70
2023-01-04T07:45:00.084Z,97.70
2023-01-04T07:46:32.557Z,97.70
2023-01-04T07:48:04.387Z,97.80
2023-01-04T07:49:36.000Z,97.90
2023-01-04T07:51:07.701Z,97.80
2023-01-04T07:52:39.350Z,97.90
2023-01-04T07:54:11.593Z,97.90
2023-01-04T07:55:43.267Z,97.80
2023-01-04T07:57:15.099Z,98.10
2023-01-04T07:58:46.803Z,98.10
2023-01-04T08:00:18.809Z,98.10
2023-01-04T08:01:51.087Z,98.40
2023-01-04T08:03:22.961Z,98.40
2023-01-04T08:04:56.433Z,98.40
2023-01-04T08:06:28.141Z,98.40
2023-01-04T08:08:00.005Z,98.50
2023-01-04T08:09:31.671Z,98.50
2023-01-04T08:11:24.609Z,98.50
2023-01-04T08:12:59.683Z,98.60
2023-01-04T08:14:31.416Z,98.50
2023-01-04T08:16:03.861Z,98.60
2023-01-04T08:17:35.620Z,98.50
2023-01-04T08:19:16.612Z,98.40
2023-01-04T08:20:52.155Z,98.50
2023-01-04T08:22:26.486Z,98.40
2023-01-04T08:23:58.483Z,98.40
2023-01-04T08:25:30.211Z,98.50
2023-01-04T08:27:01.836Z,98.40
2023-01-04T08:28:34.375Z,98.50
2023-01-04T08:30:06.636Z,98.40
2023-01-04T08:31:39.933Z,98.50
2023-01-04T08:33:15.530Z,98.70
2023-01-04T08:34:47.164Z,98.70
2023-01-04T08:36:27.569Z,98.60
2023-01-04T08:38:20.037Z,98.70
2023-01-04T08:39:51.207Z,98.90
2023-01-04T08:41:56.186Z,99.00
2023-01-04T08:43:14.381Z,99.10
2023-01-04T08:44:46.006Z,99.10
2023-01-04T08:46:17.732Z,99.40
2023-01-04T08:47:49.775Z,99.30
2023-01-04T08:49:22.381Z,99.30
2023-01-04T08:50:54.078Z,99.40
2023-01-04T08:52:26.228Z,99.40
2023-01-04T08:53:58.472Z,99.30
2023-01-04T08:55:30.123Z,99.30
2023-01-04T08:57:01.843Z,99.40
2023-01-04T08:58:37.037Z,99.40
2023-01-04T09:00:11.229Z,99.40
2023-01-04T09:01:43.025Z,99.40
2023-01-04T09:03:15.057Z,99.50
2023-01-04T09:04:46.818Z,99.60
2023-01-04T09:06:19.164Z,99.70
2023-01-04T09:07:50.876Z,99.70
2023-01-04T09:09:22.522Z,99.70
2023-01-04T09:10:54.127Z,99.80
2023-01-04T09:12:25.957Z,99.80
2023-01-04T09:14:06.776Z,99.80
2023-01-04T09:15:39.376Z,99.70
2023-01-04T09:17:11.053Z,99.70
2023-01-04T09:18:43.749Z,99.60
2023-01-04T09:20:15.534Z,99.70
2023-01-04T09:21:47.312Z,99.70
2023-01-04T09:23:18.999Z,99.70
2023-01-04T09:24:50.663Z,99.70
2023-01-04T09:26:23.530Z,99.70
2023-01-04T09:27:57.096Z,99.90
2023-01-04T09:29:28.724Z,99.80
2023-01-04T09:31:05.747Z,99.50
2023-01-04T09:32:37.420Z,99.80
2023-01-04T09:34:14.511Z,99.70
2023-01-04T09:35:48.011Z,99.70
2023-01-04T09:37:19.645Z,99.60
2023-01-04T09:38:54.742Z,99.70
2023-01-04T09:40:50.099Z,99.60
2023-01-04T09:42:36.990Z,99.60
2023-01-04T09:44:09.315Z,99.80
2023-01-04T09:45:41.500Z,99.90
2023-01-04T09:47:38.227Z,99.90
2023-01-04T09:49:24.830Z,99.90
2023-01-04T09:51:04.491Z,99.90
2023-01-04T09:52:51.440Z,99.90
2023-01-04T09:56:15.761Z,99.90
2023-01-04T09:57:59.161Z,99.90
2023-01-04T09:59:33.780Z,99.90
2023-01-04T10:01:10.324Z,99.90
2023-01-04T10:02:54.015Z,99.90
2023-01-04T10:04:48.863Z,99.90
2023-01-04T10:06:20.545Z,99.90
2023-01-04T10:07:52.191Z,99.90
2023-01-04T10:09:24.068Z,99.90
2023-01-04T10:11:22.622Z,99.90
2023-01-04T10:13:09.508Z,99.90
2023-01-04T10:15:20.485Z,99.90
2023-01-04T10:17:14.028Z,99.90
2023-01-04T10:20:07.919Z,99.90
2023-01-04T10:22:57.346Z,99.90
2023-01-04T10:24:50.399Z,99.90
2023-01-04T10:26:30.202Z,99.90
2023-01-04T10:28:11.438Z,99.90
2023-01-04T10:29:56.192Z,99.90
2023-01-04T10:31:39.385Z,99.90
2023-01-04T10:33:50.281Z,99.90
2023-01-04T10:35:25.398Z,99.90
2023-01-04T10:36:59.950Z,99.90
2023-01-04T10:38:39.873Z,99.90
2023-01-04T10:40:16.720Z,99.90
2023-01-04T10:42:25.133Z,99.90
2023-01-04T10:44:12.210Z,99.90
2023-01-04T10:46:02.009Z,99.90
2023-01-04T10:47:42.719Z,99.90
2023-01-04T10:49:48.418Z,99.90
2023-01-04T10:51:38.368Z,99.90
2023-01-04T10:53:16.143Z,99.90
2023-01-04T10:54:58.003Z,99.90
2023-01-04T10:56:39.526Z,99.90
2023-01-04T10:58:46.588Z,99.90
2023-01-04T11:00:26.393Z,99.90
2023-01-04T11:02:16.105Z,99.90
2023-01-04T11:04:02.391Z,99.90
2023-01-04T11:06:08.852Z,99.90
2023-01-04T11:07:51.356Z,99.90
2023-01-04T11:09:27.220Z,99.90
2023-01-04T11:11:10.714Z,99.90
2023-01-04T11:12:42.468Z,99.90
2023-01-04T11:14:15.301Z,99.90
2023-01-04T11:15:47.758Z,99.90
2023-01-04T11:17:20.697Z,99.90
2023-01-04T11:18:52.933Z,99.90
2023-01-04T11:20:27.101Z,99.90
2023-01-04T11:22:14.559Z,99.90
2023-01-04T11:23:46.252Z,99.90
2023-01-04T11:25:37.943Z,99.90
2023-01-04T11:27:25.282Z,99.90
2023-01-04T11:29:12.854Z,99.90
2023-01-04T11:31:14.804Z,99.90
2023-01-04T11:32:54.008Z,99.90
2023-01-04T11:34:53.184Z,99.90
2023-01-04T11:36:45.027Z,99.90
2023-01-04T11:38:25.221Z,99.90
2023-01-04T11:40:20.920Z,99.90
2023-01-04T11:42:03.577Z,99.90
2023-01-04T11:43:37.658Z,99.90
2023-01-04T11:45:25.289Z,99.90
2023-01-04T11:47:15.732Z,99.90
2023-01-04T11:48:48.056Z,99.90
2023-01-04T11:50:42.765Z,99.90
2023-01-04T11:52:30.890Z,99.90
2023-01-04T11:54:13.680Z,99.90
2023-01-04T11:55:45.279Z,99.90
2023-01-04T11:57:20.493Z,99.90
2023-01-04T11:59:10.990Z,99.90
2023-01-04T12:00:57.439Z,99.90
2023-01-04T12:02:59.637Z,99.90
2023-01-04T12:04:23.953Z,99.90
2023-01-04T12:05:56.116Z,99.90
2023-01-04T12:07:32.261Z,99.90
2023-01-04T12:09:04.240Z,99.90
2023-01-04T12:10:36.692Z,99.90
2023-01-04T12:14:05.307Z,99.90
2023-01-04T12:15:43.309Z,99.90
2023-01-04T12:17:30.265Z,99.90
2023-01-04T12:19:03.628Z,99.90
2023-01-04T12:20:36.333Z,99.90
2023-01-04T12:22:38.510Z,99.90
2023-01-04T12:24:14.985Z,99.90
2023-01-04T12:25:51.277Z,99.90
2023-01-04T12:27:23.362Z,99.90
2023-01-04T12:29:23.261Z,99.90
2023-01-04T12:30:55.846Z,99.90
2023-01-04T12:32:27.426Z,99.90
2023-01-04T12:34:16.150Z,99.90
2023-01-04T12:36:10.745Z,99.90
2023-01-04T12:37:45.983Z,99.90
2023-01-04T12:39:22.405Z,99.90
2023-01-04T12:40:55.378Z,99.90
2023-01-04T12:42:27.136Z,99.90
2023-01-04T12:43:58.821Z,99.90
2023-01-04T12:45:30.514Z,99.90
2023-01-04T12:47:36.507Z,99.90
2023-01-04T12:49:28.317Z,99.90
2023-01-04T12:51:33.742Z,99.90
2023-01-04T12:53:32.029Z,99.90
2023-01-04T12:55:23.644Z,99.90
2023-01-04T12:57:16.850Z,99.90
2023-01-04T12:59:33.783Z,99.90
2023-01-04T13:01:05.515Z,99.90
2023-01-04T13:02:48.042Z,99.90
2023-01-04T13:04:41.043Z,99.90
2023-01-04T13:06:13.966Z,99.90
2023-01-04T13:07:52.167Z,99.90
2023-01-04T13:09:25.278Z,99.90
2023-01-04T13:10:57.455Z,99.90
2023-01-04T13:12:46.969Z,99.90
2023-01-04T13:14:29.964Z,99.90
2023-01-04T13:16:20.355Z,99.90
2023-01-04T13:17:52.969Z,99.90
2023-01-04T13:19:26.201Z,99.90
2023-01-04T13:20:58.136Z,99.90
2023-01-04T13:22:30.826Z,99.90
2023-01-04T13:24:27.230Z,99.90
2023-01-04T13:26:35.121Z,99.90
2023-01-04T13:28:06.785Z,99.90
2023-01-04T13:29:40.984Z,99.90
2023-01-04T13:31:12.735Z,99.90
2023-01-04T13:33:15.484Z,99.90
2023-01-04T13:34:43.044Z,99.90
2023-01-04T13:36:14.750Z,99.90
2023-01-04T13:37:48.605Z,99.90
2023-01-04T13:39:20.408Z,99.90
2023-01-04T13:40:52.136Z,99.90
2023-01-04T13:42:30.676Z,99.90
2023-01-04T13:44:13.274Z,99.90
2023-01-04T13:46:07.035Z,99.90
2023-01-04T13:47:41.685Z,99.90
2023-01-04T13:49:16.370Z,99.90
2023-01-04T13:51:14.977Z,99.90
2023-01-04T13:52:59.860Z,99.90
2023-01-04T13:54:35.828Z,99.90
2023-01-04T13:56:19.221Z,99.90
2023-01-04T13:58:02.241Z,99.90
2023-01-04T13:59:33.882Z,99.90
2023-01-04T14:01:19.384Z,99.90
2023-01-04T14:03:27.536Z,99.90
2023-01-04T14:04:59.309Z,99.90
2023-01-04T14:06:34.771Z,99.90
2023-01-04T14:08:11.319Z,99.90
2023-01-04T14:09:53.757Z,99.90
2023-01-04T14:12:05.799Z,99.90
2023-01-04T14:13:44.578Z,99.90
2023-01-04T14:15:26.081Z,99.90
2023-01-04T14:17:15.551Z,99.90
2023-01-04T14:18:47.204Z,99.90
2023-01-04T14:20:24.567Z,99.90
2023-01-04T14:21:56.285Z,99.90
2023-01-04T14:23:34.018Z,99.90
2023-01-04T14:25:30.503Z,99.90
2023-01-04T14:27:41.030Z,99.90
2023-01-04T14:29:22.719Z,99.90
2023-01-04T14:31:18.515Z,99.90
2023-01-04T14:33:02.364Z,99.90
2023-01-04T14:34:36.261Z,99.90
2023-01-04T14:36:26.900Z,99.90
2023-01-04T14:38:10.859Z,99.90
2023-01-04T14:39:42.593Z,99.90
2023-01-04T14:41:22.628Z,99.90
2023-01-04T14:42:55.465Z,99.90
2023-01-04T14:44:30.692Z,99.90
2023-01-04T14:46:02.944Z,99.90
2023-01-04T14:47:34.985Z,99.90
2023-01-04T14:49:06.635Z,99.90
2023-01-04T14:50:38.288Z,99.90
2023-01-04T14:52:12.254Z,99.90
2023-01-04T14:53:44.010Z,99.90
2023-01-04T14:55:15.659Z,99.90
2023-01-04T14:56:47.322Z,99.90
2023-01-04T14:58:18.944Z,99.90
2023-01-04T14:59:50.825Z,99.90
2023-01-04T15:01:22.728Z,99.90
2023-01-04T15:02:54.618Z,99.90
2023-01-04T15:04:26.641Z,99.90
2023-01-04T15:05:58.668Z,99.90
2023-01-04T15:07:36.012Z,99.90
2023-01-04T15:09:10.249Z,99.90
2023-01-04T15:10:41.895Z,99.90
2023-01-04T15:12:13.692Z,99.90
2023-01-04T15:13:45.425Z,99.90
2023-01-04T15:15:17.365Z,99.90
2023-01-04T15:16:49.220Z,99.90
2023-01-04T15:18:20.926Z,99.90
2023-01-04T15:19:52.580Z,99.90
2023-01-04T15:21:24.225Z,99.90
2023-01-04T15:22:55.912Z,99.90
2023-01-04T15:24:27.550Z,99.90
2023-01-04T15:26:01.665Z,99.90
2023-01-04T15:27:38.361Z,99.90
2023-01-04T15:29:13.597Z,99.90
2023-01-04T15:30:45.290Z,99.90
2023-01-04T15:32:17.521Z,99.90
2023-01-04T15:33:49.419Z,99.90
2023-01-04T15:35:21.172Z,99.90
2023-01-04T15:36:52.801Z,99.90
2023-01-04T15:38:24.421Z,99.90
2023-01-04T15:40:01.896Z,99.90
2023-01-04T15:41:53.128Z,99.90
2023-01-04T15:43:25.995Z,99.90
2023-01-04T15:44:59.591Z,99.90
2023-01-04T15:46:31.363Z,99.90
2023-01-04T15:48:04.698Z,99.90
2023-01-04T15:49:36.305Z,99.90
2023-01-04T15:51:09.258Z,99.90
2023-01-04T15:52:40.990Z,99.90
2023-01-04T15:54:12.969Z,99.90
2023-01-04T15:55:44.689Z,99.90
2023-01-04T15:57:16.438Z,99.90
2023-01-04T15:58:52.543Z,99.90
2023-01-04T16:00:24.193Z,99.90
2023-01-04T16:01:56.143Z,99.90
2023-01-04T16:03:27.972Z,99.90
2023-01-04T16:04:59.726Z,99.90
2023-01-04T16:06:31.384Z,99.90
2023-01-04T16:08:03.147Z,99.90
2023-01-04T16:09:36.755Z,99.90
2023-01-04T16:11:17.278Z,99.90
2023-01-04T16:12:56.490Z,99.90
2023-01-04T16:14:28.761Z,99.90
2023-01-04T16:16:01.567Z,99.90
2023-01-04T16:17:33.489Z,99.90
2023-01-04T16:19:06.144Z,99.90
2023-01-04T16:20:41.472Z,99.90
2023-01-04T16:22:13.130Z,99.90
2023-01-04T16:23:54.889Z,99.90
2023-01-04T16:25:30.152Z,99.90
2023-01-04T16:27:01.797Z,99.90
2023-01-04T16:28:34.143Z,99.90
2023-01-04T16:30:13.270Z,99.90
2023-01-04T16:31:45.327Z,99.90
2023-01-04T16:33:16.995Z,99.90
2023-01-04T16:34:52.194Z,99.90
2023-01-04T16:36:23.840Z,99.90
2023-01-04T16:37:55.465Z,99.90
2023-01-04T16:39:57.262Z,99.90
2023-01-04T16:41:24.738Z,99.90
2023-01-04T16:42:56.457Z,99.90
2023-01-04T16:44:28.069Z,99.90
2023-01-04T16:46:12.167Z,99.90
2023-01-04T16:47:44.597Z,99.90
2023-01-04T16:49:17.291Z,99.90
2023-01-04T16:50:48.960Z,99.90
2023-01-04T16:52:21.235Z,99.90
2023-01-04T16:53:54.100Z,99.90
2023-01-04T16:55:25.743Z,99.90
2023-01-04T16:56:58.865Z,99.90
2023-01-04T16:58:31.032Z,99.90
2023-01-04T17:00:04.577Z,99.90
2023-01-04T17:01:42.297Z,99.90
2023-01-04T17:03:19.649Z,99.90
2023-01-04T17:04:55.316Z,99.90
2023-01-04T17:06:32.314Z,99.90
2023-01-04T17:08:04.190Z,99.90
2023-01-04T17:09:35.883Z,99.90
2023-01-04T17:12:18.616Z,99.90
2023-01-04T17:13:06.548Z,99.90
2023-01-04T17:14:38.861Z,99.90
2023-01-04T17:16:12.241Z,99.90
2023-01-04T17:17:43.868Z,99.90
2023-01-04T17:19:15.619Z,99.90
2023-01-04T17:21:11.115Z,99.90
2023-01-04T17:22:47.682Z,99.90
2023-01-04T17:24:19.420Z,99.90
2023-01-04T17:25:51.209Z,99.90
2023-01-04T17:27:22.892Z,99.90
2023-01-04T17:28:57.307Z,99.90
2023-01-04T17:30:29.034Z,99.90
2023-01-04T17:32:00.813Z,99.90
2023-01-04T17:33:32.565Z,99.90
2023-01-04T17:35:04.522Z,99.90
2023-01-04T17:36:38.051Z,99.90
2023-01-04T17:38:09.743Z,99.90
2023-01-04T17:39:41.359Z,99.90
2023-01-04T17:41:18.212Z,99.90
2023-01-04T17:42:49.980Z,99.90
2023-01-04T17:44:21.692Z,99.90
2023-01-04T17:45:53.476Z,99.90
2023-01-04T17:47:25.556Z,99.90
2023-01-04T17:49:21.608Z,99.90
2023-01-04T17:50:50.308Z,99.90
2023-01-04T17:52:30.405Z,99.90
2023-01-04T17:54:04.512Z,99.90
2023-01-04T17:55:36.382Z,99.90
2023-01-04T17:57:08.012Z,99.90
2023-01-04T17:58:40.403Z,99.90
2023-01-04T18:00:14.837Z,99.90
2023-01-04T18:01:46.874Z,99.90
2023-01-04T18:03:18.600Z,99.90
2023-01-04T18:04:50.284Z,99.90
2023-01-04T18:06:25.688Z,99.90
2023-01-04T18:07:57.793Z,99.90
2023-01-04T18:09:29.437Z,99.90
2023-01-04T18:11:07.702Z,99.90
2023-01-04T18:12:39.804Z,99.90
2023-01-04T18:14:14.166Z,99.90
2023-01-04T18:16:09.959Z,99.90
2023-01-04T18:17:37.889Z,99.90
2023-01-04T18:19:09.520Z,99.90
2023-01-04T18:20:43.246Z,99.90
2023-01-04T18:22:20.628Z,99.90
2023-01-04T18:24:34.220Z,99.90
2023-01-04T18:25:46.475Z,99.90
2023-01-04T18:27:23.109Z,99.90
2023-01-04T18:28:56.438Z,99.90
2023-01-04T18:30:28.110Z,99.90
2023-01-04T18:31:59.787Z,99.90
2023-01-04T18:33:31.543Z,99.90
2023-01-04T18:35:05.359Z,99.90
2023-01-04T18:36:42.471Z,99.90
2023-01-04T18:38:14.465Z,99.90
2023-01-04T18:39:47.211Z,99.90
2023-01-04T18:41:19.421Z,99.90
2023-01-04T18:42:51.489Z,99.90
2023-01-04T18:44:32.680Z,99.90
2023-01-04T18:46:09.403Z,99.90
2023-01-04T18:47:47.373Z,99.90
2023-01-04T18:49:19.036Z,99.90
2023-01-04T18:50:50.710Z,99.90
2023-01-04T18:52:22.366Z,99.90
2023-01-04T18:53:54.145Z,99.90
2023-01-04T18:55:25.813Z,99.90
2023-01-04T18:57:01.077Z,99.90
2023-01-04T18:58:33.555Z,99.90
2023-01-04T19:00:07.216Z,99.90
2023-01-04T19:01:39.114Z,99.90
2023-01-04T19:03:16.465Z,99.90
2023-01-04T19:04:50.281Z,99.90
2023-01-04T19:06:23.279Z,99.90
2023-01-04T19:07:55.279Z,99.90
2023-01-04T19:09:27.106Z,99.90
2023-01-04T19:10:58.819Z,99.90
2023-01-04T19:12:30.507Z,99.90
2023-01-04T19:14:03.346Z,99.90
2023-01-04T19:15:35.077Z,99.90
2023-01-04T19:17:08.076Z,99.90
2023-01-04T19:18:40.380Z,99.90
2023-01-04T19:20:12.097Z,99.90
2023-01-04T19:21:43.837Z,99.90
2023-01-04T19:23:15.642Z,99.90
2023-01-04T19:24:47.321Z,99.90
2023-01-04T19:26:19.087Z,99.90
2023-01-04T19:27:50.742Z,99.90
2023-01-04T19:29:22.789Z,99.90
2023-01-04T19:30:54.568Z,99.90
2023-01-04T19:32:33.059Z,99.90
2023-01-04T19:34:05.274Z,99.90
2023-01-04T19:35:42.272Z,99.90
2023-01-04T19:37:14.093Z,99.90
2023-01-04T19:38:46.193Z,99.90
2023-01-04T19:40:17.917Z,99.90
2023-01-04T19:41:49.559Z,99.90
2023-01-04T19:43:23.684Z,99.90
2023-01-04T19:44:55.361Z,99.90
2023-01-04T19:46:27.007Z,99.90
2023-01-04T19:47:58.673Z,99.80
2023-01-04T19:49:30.348Z,99.80
2023-01-04T19:51:14.571Z,99.70
2023-01-04T19:52:47.561Z,99.70
2023-01-04T19:54:24.987Z,99.70
2023-01-04T19:55:57.349Z,99.60
2023-01-04T19:57:29.008Z,99.50
2023-01-04T19:59:00.621Z,99.50
2023-01-04T20:00:32.357Z,99.50
2023-01-04T20:02:04.269Z,99.50
2023-01-04T20:03:36.118Z,99.30
2023-01-04T20:05:08.022Z,99.30
2023-01-04T20:06:40.069Z,99.30
2023-01-04T20:08:11.784Z,99.30
2023-01-04T20:09:43.416Z,99.50
2023-01-04T20:11:15.136Z,99.00
2023-01-04T20:12:46.747Z,99.00
2023-01-04T20:14:21.159Z,99.10
2023-01-04T20:15:55.848Z,99.00
2023-01-04T20:17:27.513Z,99.00
2023-01-04T20:18:59.383Z,98.90
2023-01-04T20:20:31.005Z,98.80
2023-01-04T20:22:02.641Z,98.80
2023-01-04T20:23:34.339Z,98.60
2023-01-04T20:25:06.579Z,98.70
2023-01-04T20:26:38.851Z,98.70
2023-01-04T20:28:10.668Z,98.60
2023-01-04T20:29:45.486Z,98.40
2023-01-04T20:31:19.021Z,98.40
2023-01-04T20:32:50.795Z,98.40
2023-01-04T20:34:22.499Z,98.30
2023-01-04T20:35:54.234Z,98.20
2023-01-04T20:37:25.880Z,98.20
2023-01-04T20:38:59.335Z,98.00
2023-01-04T20:40:34.064Z,98.00
2023-01-04T20:42:24.235Z,98.00
2023-01-04T20:43:56.089Z,97.90
2023-01-04T20:45:27.867Z,97.80
2023-01-04T20:46:59.531Z,97.80
2023-01-04T20:48:31.707Z,97.70
2023-01-04T20:50:03.377Z,97.70
2023-01-04T20:51:35.075Z,97.60
2023-01-04T20:53:06.738Z,97.50
2023-01-04T20:54:38.440Z,97.50
2023-01-04T20:56:18.034Z,97.50
2023-01-04T20:57:49.710Z,97.70